KLM274 EHAM-EGLC
Flight info
| Callsign | KLM274 |
|---|---|
| Flight time | 0h 46m |
| Altitude | 20000 |
| Route | IDRID L980 XAMAN |
| Aircraft | A21N/M-SDE2E3FGHIRWXY/LB1 |
Departure
| Time | 2026-04-19 06:32 |
|---|---|
| Airport | Amsterdam Airport Schiphol (EHAM) |
Arrival
| Time | 2026-04-19 07:18 |
|---|---|
| Airport | London City Airport (EGLC) |
| Time | Latitude | Longitude | Altitude | Speed | Heading |
|---|---|---|---|---|---|
| 2026-04-19 06:07 | 52.31004 | 4.77314 | -1 ft | 0 kts | 182° |
| 2026-04-19 06:08 | 52.30999 | 4.77314 | -1 ft | 0 kts | 182° |
| 2026-04-19 06:09 | 52.31004 | 4.77314 | -1 ft | 0 kts | 182° |
| 2026-04-19 06:12 | 52.30999 | 4.77314 | 1 ft | 0 kts | 182° |
| 2026-04-19 06:19 | 52.31010 | 4.77315 | -1 ft | 4 kts | 182° |
| 2026-04-19 06:19 | 52.31038 | 4.77315 | -1 ft | 4 kts | 175° |
| 2026-04-19 06:19 | 52.31063 | 4.77308 | -1 ft | 4 kts | 146° |
| 2026-04-19 06:20 | 52.31073 | 4.77288 | -1 ft | 0 kts | 93° |
| 2026-04-19 06:22 | 52.31072 | 4.77308 | -1 ft | 6 kts | 93° |
| 2026-04-19 06:22 | 52.31071 | 4.77445 | -1 ft | 17 kts | 78° |
| 2026-04-19 06:22 | 52.31140 | 4.77528 | -1 ft | 11 kts | 52° |
| 2026-04-19 06:22 | 52.31188 | 4.77620 | -1 ft | 10 kts | 35° |
| 2026-04-19 06:23 | 52.31275 | 4.77646 | -1 ft | 19 kts | 2° |
| 2026-04-19 06:23 | 52.31438 | 4.77631 | -1 ft | 27 kts | 340° |
| 2026-04-19 06:23 | 52.31570 | 4.77422 | -1 ft | 27 kts | 285° |
| 2026-04-19 06:23 | 52.31569 | 4.77126 | -1 ft | 27 kts | 265° |
| 2026-04-19 06:24 | 52.31558 | 4.76823 | -1 ft | 26 kts | 267° |
| 2026-04-19 06:24 | 52.31549 | 4.76527 | -1 ft | 26 kts | 267° |
| 2026-04-19 06:24 | 52.31540 | 4.76231 | -1 ft | 26 kts | 267° |
| 2026-04-19 06:24 | 52.31530 | 4.75941 | -1 ft | 25 kts | 266° |
| 2026-04-19 06:25 | 52.31518 | 4.75652 | -1 ft | 25 kts | 266° |
| 2026-04-19 06:25 | 52.31508 | 4.75365 | -1 ft | 25 kts | 267° |
| 2026-04-19 06:25 | 52.31500 | 4.75089 | -1 ft | 24 kts | 266° |
| 2026-04-19 06:25 | 52.31492 | 4.74814 | -1 ft | 25 kts | 268° |
| 2026-04-19 06:26 | 52.31483 | 4.74521 | -1 ft | 26 kts | 266° |
| 2026-04-19 06:26 | 52.31506 | 4.74327 | -1 ft | 15 kts | 319° |
| 2026-04-19 06:26 | 52.31610 | 4.74309 | -1 ft | 17 kts | 4° |
| 2026-04-19 06:26 | 52.31736 | 4.74314 | -1 ft | 19 kts | 3° |
| 2026-04-19 06:27 | 52.31881 | 4.74329 | -1 ft | 22 kts | 4° |
| 2026-04-19 06:27 | 52.32028 | 4.74291 | -1 ft | 20 kts | 300° |
| 2026-04-19 06:27 | 52.32034 | 4.74077 | -1 ft | 20 kts | 281° |
| 2026-04-19 06:27 | 52.32038 | 4.73826 | -1 ft | 25 kts | 275° |
| 2026-04-19 06:28 | 52.32054 | 4.73532 | -1 ft | 26 kts | 275° |
| 2026-04-19 06:28 | 52.32137 | 4.73288 | -1 ft | 25 kts | 319° |
| 2026-04-19 06:28 | 52.32268 | 4.73104 | -1 ft | 25 kts | 319° |
| 2026-04-19 06:28 | 52.32397 | 4.72921 | -1 ft | 25 kts | 319° |
| 2026-04-19 06:29 | 52.32526 | 4.72740 | -1 ft | 24 kts | 319° |
| 2026-04-19 06:29 | 52.32653 | 4.72562 | -1 ft | 24 kts | 319° |
| 2026-04-19 06:29 | 52.32776 | 4.72345 | -1 ft | 28 kts | 312° |
| 2026-04-19 06:29 | 52.32897 | 4.72119 | -1 ft | 25 kts | 310° |
| 2026-04-19 06:30 | 52.33012 | 4.71900 | -1 ft | 25 kts | 311° |
| 2026-04-19 06:30 | 52.33122 | 4.71683 | -1 ft | 24 kts | 294° |
| 2026-04-19 06:30 | 52.33094 | 4.71450 | -1 ft | 22 kts | 224° |
| 2026-04-19 06:30 | 52.32981 | 4.71283 | -1 ft | 22 kts | 223° |
| 2026-04-19 06:31 | 52.32879 | 4.71114 | -1 ft | 21 kts | 239° |
| 2026-04-19 06:31 | 52.32896 | 4.70924 | -2 ft | 15 kts | 321° |
| 2026-04-19 06:31 | 52.33000 | 4.70907 | -3 ft | 19 kts | 4° |
| 2026-04-19 06:31 | 52.33362 | 4.70935 | -2 ft | 88 kts | 2° |
| 2026-04-19 06:32 | 52.34187 | 4.71003 | -3 ft | 145 kts | 2° |
| 2026-04-19 06:32 | 52.35313 | 4.71138 | 307 ft | 162 kts | 4° |
| 2026-04-19 06:32 | 52.36055 | 4.71254 | 797 ft | 160 kts | 3° |
| 2026-04-19 06:32 | 52.37166 | 4.71376 | 1484 ft | 161 kts | 1° |
| 2026-04-19 06:33 | 52.38338 | 4.71480 | 1813 ft | 179 kts | 1° |
| 2026-04-19 06:33 | 52.39662 | 4.71592 | 1990 ft | 203 kts | 1° |
| 2026-04-19 06:33 | 52.41171 | 4.71719 | 2334 ft | 230 kts | 1° |
| 2026-04-19 06:33 | 52.43364 | 4.71916 | 3385 ft | 243 kts | 1° |
| 2026-04-19 06:34 | 52.45062 | 4.72078 | 4320 ft | 248 kts | 1° |
| 2026-04-19 06:34 | 52.46232 | 4.72194 | 4969 ft | 250 kts | 1° |
| 2026-04-19 06:34 | 52.47987 | 4.72366 | 5871 ft | 255 kts | 1° |
| 2026-04-19 06:34 | 52.49773 | 4.72540 | 6796 ft | 258 kts | 1° |
| 2026-04-19 06:35 | 52.51557 | 4.72714 | 7660 ft | 262 kts | 1° |
| 2026-04-19 06:35 | 52.53412 | 4.72896 | 8551 ft | 266 kts | 1° |
| 2026-04-19 06:35 | 52.55279 | 4.73016 | 9413 ft | 269 kts | 353° |
| 2026-04-19 06:35 | 52.57053 | 4.72150 | 10226 ft | 269 kts | 328° |
| 2026-04-19 06:36 | 52.58410 | 4.70054 | 10999 ft | 272 kts | 302° |
| 2026-04-19 06:36 | 52.59086 | 4.67130 | 11643 ft | 284 kts | 279° |
| 2026-04-19 06:36 | 52.59158 | 4.63738 | 11892 ft | 308 kts | 271° |
| 2026-04-19 06:36 | 52.59026 | 4.60092 | 12128 ft | 332 kts | 259° |
| 2026-04-19 06:37 | 52.58174 | 4.56547 | 12719 ft | 345 kts | 241° |
| 2026-04-19 06:37 | 52.56600 | 4.53513 | 13481 ft | 355 kts | 222° |
| 2026-04-19 06:37 | 52.54457 | 4.51436 | 14236 ft | 364 kts | 206° |
| 2026-04-19 06:37 | 52.52089 | 4.49775 | 14957 ft | 367 kts | 206° |
| 2026-04-19 06:38 | 52.49720 | 4.48147 | 15648 ft | 371 kts | 205° |
| 2026-04-19 06:38 | 52.47320 | 4.46512 | 16328 ft | 375 kts | 205° |
| 2026-04-19 06:38 | 52.44896 | 4.44865 | 17004 ft | 379 kts | 205° |
| 2026-04-19 06:38 | 52.42551 | 4.42991 | 17607 ft | 380 kts | 215° |
| 2026-04-19 06:39 | 52.40430 | 4.40407 | 18272 ft | 380 kts | 226° |
| 2026-04-19 06:39 | 52.38660 | 4.37218 | 18872 ft | 379 kts | 237° |
| 2026-04-19 06:39 | 52.37288 | 4.33559 | 19448 ft | 378 kts | 245° |
| 2026-04-19 06:39 | 52.36058 | 4.29738 | 20000 ft | 381 kts | 245° |
| 2026-04-19 06:40 | 52.34810 | 4.25904 | 20181 ft | 382 kts | 245° |
| 2026-04-19 06:40 | 52.33538 | 4.22032 | 20226 ft | 390 kts | 245° |
| 2026-04-19 06:40 | 52.32244 | 4.18104 | 20226 ft | 392 kts | 245° |
| 2026-04-19 06:40 | 52.30803 | 4.14317 | 20227 ft | 396 kts | 236° |
| 2026-04-19 06:41 | 52.29099 | 4.10751 | 20231 ft | 397 kts | 235° |
| 2026-04-19 06:41 | 52.27401 | 4.07208 | 20231 ft | 397 kts | 235° |
| 2026-04-19 06:41 | 52.25703 | 4.03660 | 20231 ft | 397 kts | 235° |
| 2026-04-19 06:41 | 52.24006 | 4.00111 | 20231 ft | 397 kts | 235° |
| 2026-04-19 06:42 | 52.22306 | 3.96553 | 20229 ft | 397 kts | 235° |
| 2026-04-19 06:42 | 52.20609 | 3.93013 | 20210 ft | 396 kts | 237° |
| 2026-04-19 06:42 | 52.18915 | 3.89483 | 20212 ft | 396 kts | 237° |
| 2026-04-19 06:42 | 52.17215 | 3.85938 | 20214 ft | 396 kts | 237° |
| 2026-04-19 06:43 | 52.15518 | 3.82407 | 20226 ft | 397 kts | 237° |
| 2026-04-19 06:43 | 52.13814 | 3.78869 | 20228 ft | 397 kts | 237° |
| 2026-04-19 06:43 | 52.12108 | 3.75342 | 20220 ft | 397 kts | 237° |
| 2026-04-19 06:43 | 52.10393 | 3.71809 | 20235 ft | 397 kts | 237° |
| 2026-04-19 06:44 | 52.08687 | 3.68288 | 20232 ft | 397 kts | 237° |
| 2026-04-19 06:44 | 52.06980 | 3.64761 | 20231 ft | 397 kts | 237° |
| 2026-04-19 06:44 | 52.05273 | 3.61248 | 20239 ft | 397 kts | 237° |
| 2026-04-19 06:44 | 52.03558 | 3.57723 | 20230 ft | 397 kts | 237° |
| 2026-04-19 06:45 | 52.01846 | 3.54215 | 20234 ft | 397 kts | 237° |
| 2026-04-19 06:45 | 52.00132 | 3.50696 | 20226 ft | 397 kts | 237° |
| 2026-04-19 06:45 | 51.98439 | 3.47170 | 20219 ft | 396 kts | 238° |
| 2026-04-19 06:45 | 51.96793 | 3.43588 | 20222 ft | 395 kts | 239° |
| 2026-04-19 06:46 | 51.95187 | 3.39991 | 20205 ft | 394 kts | 240° |
| 2026-04-19 06:46 | 51.93589 | 3.36374 | 20205 ft | 394 kts | 240° |
| 2026-04-19 06:46 | 51.91992 | 3.32776 | 20208 ft | 394 kts | 240° |
| 2026-04-19 06:46 | 51.90379 | 3.29187 | 20213 ft | 394 kts | 240° |
| 2026-04-19 06:47 | 51.88756 | 3.25606 | 20216 ft | 394 kts | 240° |
| 2026-04-19 06:47 | 51.87135 | 3.22026 | 20222 ft | 393 kts | 241° |
| 2026-04-19 06:47 | 51.85791 | 3.18232 | 20223 ft | 386 kts | 251° |
| 2026-04-19 06:47 | 51.84901 | 3.14195 | 20223 ft | 379 kts | 261° |
| 2026-04-19 06:48 | 51.84456 | 3.10019 | 20231 ft | 374 kts | 269° |
| 2026-04-19 06:48 | 51.84195 | 3.05833 | 20232 ft | 374 kts | 269° |
| 2026-04-19 06:48 | 51.83926 | 3.01651 | 20233 ft | 374 kts | 268° |
| 2026-04-19 06:48 | 51.83653 | 2.97463 | 20234 ft | 374 kts | 268° |
| 2026-04-19 06:49 | 51.83377 | 2.93276 | 20235 ft | 375 kts | 268° |
| 2026-04-19 06:49 | 51.83097 | 2.89105 | 20223 ft | 375 kts | 268° |
| 2026-04-19 06:49 | 51.82815 | 2.84899 | 20226 ft | 375 kts | 268° |
| 2026-04-19 06:49 | 51.82536 | 2.80724 | 20230 ft | 375 kts | 268° |
| 2026-04-19 06:50 | 51.82254 | 2.76540 | 20231 ft | 375 kts | 268° |
| 2026-04-19 06:50 | 51.81971 | 2.72410 | 20232 ft | 375 kts | 268° |
| 2026-04-19 06:50 | 51.81681 | 2.68170 | 20240 ft | 375 kts | 268° |
| 2026-04-19 06:50 | 51.81396 | 2.63984 | 20242 ft | 375 kts | 268° |
| 2026-04-19 06:51 | 51.81113 | 2.59846 | 20245 ft | 375 kts | 268° |
| 2026-04-19 06:51 | 51.80824 | 2.55661 | 20246 ft | 375 kts | 268° |
| 2026-04-19 06:51 | 51.80528 | 2.51423 | 20252 ft | 375 kts | 268° |
| 2026-04-19 06:51 | 51.80240 | 2.47326 | 20258 ft | 368 kts | 268° |
| 2026-04-19 06:52 | 51.79949 | 2.43187 | 20264 ft | 364 kts | 268° |
| 2026-04-19 06:52 | 51.79667 | 2.39191 | 20263 ft | 364 kts | 268° |
| 2026-04-19 06:52 | 51.79375 | 2.35076 | 20265 ft | 364 kts | 268° |
| 2026-04-19 06:52 | 51.79086 | 2.31016 | 20272 ft | 364 kts | 268° |
| 2026-04-19 06:53 | 51.78793 | 2.26948 | 20267 ft | 364 kts | 268° |
| 2026-04-19 06:53 | 51.78506 | 2.22958 | 20263 ft | 363 kts | 268° |
| 2026-04-19 06:53 | 51.78229 | 2.18897 | 20269 ft | 363 kts | 268° |
| 2026-04-19 06:53 | 51.77984 | 2.14849 | 20269 ft | 363 kts | 269° |
| 2026-04-19 06:54 | 51.77753 | 2.10787 | 20275 ft | 363 kts | 269° |
| 2026-04-19 06:54 | 51.77527 | 2.06740 | 20274 ft | 363 kts | 269° |
| 2026-04-19 06:54 | 51.77298 | 2.02683 | 20275 ft | 363 kts | 269° |
| 2026-04-19 06:54 | 51.77065 | 1.98628 | 20274 ft | 363 kts | 269° |
| 2026-04-19 06:55 | 51.76826 | 1.94567 | 20274 ft | 363 kts | 269° |
| 2026-04-19 06:55 | 51.76582 | 1.90526 | 20263 ft | 363 kts | 268° |
| 2026-04-19 06:55 | 51.76333 | 1.86465 | 20264 ft | 363 kts | 268° |
| 2026-04-19 06:55 | 51.76084 | 1.82418 | 20266 ft | 363 kts | 268° |
| 2026-04-19 06:56 | 51.75834 | 1.78364 | 20268 ft | 363 kts | 268° |
| 2026-04-19 06:56 | 51.75584 | 1.74315 | 20275 ft | 363 kts | 268° |
| 2026-04-19 06:56 | 51.75330 | 1.70264 | 20278 ft | 363 kts | 268° |
| 2026-04-19 06:56 | 51.75074 | 1.66215 | 20280 ft | 363 kts | 268° |
| 2026-04-19 06:57 | 51.74816 | 1.62152 | 20281 ft | 363 kts | 268° |
| 2026-04-19 06:57 | 51.74558 | 1.58096 | 20282 ft | 363 kts | 268° |
| 2026-04-19 06:57 | 51.74299 | 1.54050 | 20289 ft | 360 kts | 268° |
| 2026-04-19 06:57 | 51.74045 | 1.50158 | 20295 ft | 340 kts | 268° |
| 2026-04-19 06:58 | 51.73788 | 1.46468 | 20298 ft | 323 kts | 265° |
| 2026-04-19 06:58 | 51.72983 | 1.43155 | 20285 ft | 319 kts | 238° |
| 2026-04-19 06:58 | 51.71303 | 1.40878 | 20298 ft | 316 kts | 216° |
| 2026-04-19 06:58 | 51.69402 | 1.39314 | 20295 ft | 304 kts | 211° |
| 2026-04-19 06:59 | 51.67482 | 1.37977 | 20295 ft | 293 kts | 210° |
| 2026-04-19 06:59 | 51.65602 | 1.36736 | 20299 ft | 290 kts | 210° |
| 2026-04-19 06:59 | 51.63775 | 1.35521 | 20073 ft | 288 kts | 210° |
| 2026-04-19 06:59 | 51.61933 | 1.34265 | 19651 ft | 285 kts | 211° |
| 2026-04-19 07:00 | 51.60145 | 1.33076 | 19309 ft | 278 kts | 205° |
| 2026-04-19 07:00 | 51.58205 | 1.32641 | 18829 ft | 286 kts | 184° |
| 2026-04-19 07:00 | 51.56233 | 1.33231 | 18307 ft | 290 kts | 169° |
| 2026-04-19 07:00 | 51.54297 | 1.34069 | 17749 ft | 287 kts | 169° |
| 2026-04-19 07:01 | 51.52377 | 1.34897 | 17212 ft | 285 kts | 169° |
| 2026-04-19 07:01 | 51.50462 | 1.35638 | 16676 ft | 280 kts | 177° |
| 2026-04-19 07:01 | 51.48557 | 1.35673 | 16138 ft | 269 kts | 189° |
| 2026-04-19 07:01 | 51.46699 | 1.35465 | 15392 ft | 267 kts | 189° |
| 2026-04-19 07:02 | 51.44855 | 1.35259 | 14676 ft | 265 kts | 189° |
| 2026-04-19 07:02 | 51.43020 | 1.35058 | 13972 ft | 263 kts | 188° |
| 2026-04-19 07:02 | 51.41229 | 1.34730 | 13218 ft | 256 kts | 198° |
| 2026-04-19 07:02 | 51.39581 | 1.33779 | 12506 ft | 248 kts | 208° |
| 2026-04-19 07:03 | 51.38003 | 1.32713 | 11803 ft | 246 kts | 208° |
| 2026-04-19 07:03 | 51.36446 | 1.31620 | 11119 ft | 241 kts | 214° |
| 2026-04-19 07:03 | 51.35251 | 1.29882 | 10469 ft | 227 kts | 240° |
| 2026-04-19 07:03 | 51.34672 | 1.27611 | 9772 ft | 218 kts | 264° |
| 2026-04-19 07:04 | 51.34736 | 1.25212 | 9081 ft | 217 kts | 288° |
| 2026-04-19 07:04 | 51.35392 | 1.23056 | 8881 ft | 217 kts | 303° |
| 2026-04-19 07:04 | 51.36202 | 1.21004 | 8501 ft | 218 kts | 303° |
| 2026-04-19 07:04 | 51.37003 | 1.18961 | 8285 ft | 217 kts | 303° |
| 2026-04-19 07:05 | 51.37802 | 1.16917 | 8086 ft | 216 kts | 303° |
| 2026-04-19 07:05 | 51.38596 | 1.14881 | 7923 ft | 215 kts | 303° |
| 2026-04-19 07:05 | 51.39387 | 1.12847 | 7753 ft | 215 kts | 303° |
| 2026-04-19 07:05 | 51.40177 | 1.10814 | 7589 ft | 215 kts | 303° |
| 2026-04-19 07:06 | 51.40965 | 1.08789 | 7403 ft | 214 kts | 303° |
| 2026-04-19 07:06 | 51.41752 | 1.06768 | 7243 ft | 214 kts | 303° |
| 2026-04-19 07:06 | 51.42539 | 1.04751 | 7077 ft | 213 kts | 303° |
| 2026-04-19 07:06 | 51.43327 | 1.02733 | 6916 ft | 213 kts | 303° |
| 2026-04-19 07:07 | 51.44110 | 1.00723 | 6732 ft | 213 kts | 303° |
| 2026-04-19 07:07 | 51.44887 | 0.98718 | 6568 ft | 212 kts | 303° |
| 2026-04-19 07:07 | 51.45666 | 0.96707 | 6394 ft | 212 kts | 303° |
| 2026-04-19 07:07 | 51.46443 | 0.94706 | 6224 ft | 212 kts | 303° |
| 2026-04-19 07:08 | 51.47187 | 0.92662 | 6107 ft | 212 kts | 295° |
| 2026-04-19 07:08 | 51.47547 | 0.90365 | 6024 ft | 215 kts | 277° |
| 2026-04-19 07:08 | 51.47630 | 0.87970 | 6033 ft | 216 kts | 276° |
| 2026-04-19 07:08 | 51.47719 | 0.85574 | 6035 ft | 216 kts | 276° |
| 2026-04-19 07:09 | 51.47811 | 0.83165 | 6038 ft | 216 kts | 276° |
| 2026-04-19 07:09 | 51.47902 | 0.80769 | 6038 ft | 216 kts | 276° |
| 2026-04-19 07:09 | 51.47993 | 0.78393 | 5917 ft | 216 kts | 276° |
| 2026-04-19 07:09 | 51.48086 | 0.75967 | 5762 ft | 215 kts | 276° |
| 2026-04-19 07:10 | 51.48176 | 0.73608 | 5617 ft | 215 kts | 276° |
| 2026-04-19 07:10 | 51.48267 | 0.71220 | 5476 ft | 215 kts | 276° |
| 2026-04-19 07:10 | 51.48353 | 0.68819 | 5333 ft | 215 kts | 276° |
| 2026-04-19 07:10 | 51.48436 | 0.66428 | 5196 ft | 215 kts | 276° |
| 2026-04-19 07:11 | 51.48523 | 0.64039 | 5054 ft | 215 kts | 276° |
| 2026-04-19 07:11 | 51.48611 | 0.61643 | 4902 ft | 215 kts | 277° |
| 2026-04-19 07:11 | 51.48697 | 0.59257 | 4762 ft | 215 kts | 277° |
| 2026-04-19 07:11 | 51.48784 | 0.56866 | 4619 ft | 214 kts | 277° |
| 2026-04-19 07:12 | 51.48870 | 0.54475 | 4479 ft | 214 kts | 277° |
| 2026-04-19 07:12 | 51.48955 | 0.52088 | 4338 ft | 215 kts | 276° |
| 2026-04-19 07:12 | 51.49040 | 0.49697 | 4195 ft | 214 kts | 277° |
| 2026-04-19 07:12 | 51.49124 | 0.47317 | 4041 ft | 214 kts | 277° |
| 2026-04-19 07:13 | 51.49208 | 0.44933 | 3941 ft | 214 kts | 277° |
| 2026-04-19 07:13 | 51.49292 | 0.42540 | 3848 ft | 214 kts | 277° |
| 2026-04-19 07:13 | 51.49375 | 0.40159 | 3749 ft | 214 kts | 277° |
| 2026-04-19 07:13 | 51.49457 | 0.37775 | 3669 ft | 214 kts | 277° |
| 2026-04-19 07:14 | 51.49539 | 0.35393 | 3573 ft | 214 kts | 277° |
| 2026-04-19 07:14 | 51.49620 | 0.33008 | 3471 ft | 214 kts | 277° |
| 2026-04-19 07:14 | 51.49701 | 0.30622 | 3375 ft | 214 kts | 277° |
| 2026-04-19 07:14 | 51.49781 | 0.28241 | 3278 ft | 213 kts | 277° |
| 2026-04-19 07:15 | 51.49855 | 0.25982 | 3200 ft | 190 kts | 277° |
| 2026-04-19 07:15 | 51.49918 | 0.24003 | 3107 ft | 166 kts | 278° |
| 2026-04-19 07:15 | 51.50030 | 0.20651 | 2814 ft | 142 kts | 279° |
| 2026-04-19 07:16 | 51.50084 | 0.19083 | 2562 ft | 140 kts | 279° |
| 2026-04-19 07:16 | 51.50135 | 0.17528 | 2325 ft | 139 kts | 279° |
| 2026-04-19 07:16 | 51.50186 | 0.15980 | 2117 ft | 139 kts | 279° |
| 2026-04-19 07:16 | 51.50237 | 0.14443 | 1820 ft | 138 kts | 278° |
| 2026-04-19 07:17 | 51.50286 | 0.12910 | 1500 ft | 136 kts | 278° |
| 2026-04-19 07:17 | 51.50335 | 0.11398 | 1165 ft | 135 kts | 277° |
| 2026-04-19 07:17 | 51.50384 | 0.09891 | 771 ft | 137 kts | 276° |
| 2026-04-19 07:17 | 51.50437 | 0.08354 | 329 ft | 139 kts | 275° |
| 2026-04-19 07:18 | 51.50485 | 0.06840 | 68 ft | 134 kts | 275° |
| 2026-04-19 07:18 | 51.50533 | 0.05496 | 26 ft | 78 kts | 274° |
| 2026-04-19 07:18 | 51.50538 | 0.05172 | 29 ft | 29 kts | 268° |
| 2026-04-19 07:18 | 51.50469 | 0.05030 | 28 ft | 16 kts | 191° |
| 2026-04-19 07:19 | 51.50407 | 0.05078 | 28 ft | 0 kts | 181° |